Time;durP1;ratioP1;P1;durP2;ratioP2;P2;SDS_P1;SDS_P2;PMS_P1;PMS_P2;Temp;Humidity;BMP_temperature;BMP_pressure;BME280_temperature;BME280_humidity;BME280_pressure;Samples;Min_cycle;Max_cycle;Signal;HPM_P1;HPM_P2
2023/09/10 00:00:21;;;;;;;9.52;6.78;;;;;;;28.18;48.87;101399.25;5073772;28;20043;-64
2023/09/10 00:02:47;;;;;;;8.10;5.18;;;;;;;28.17;47.94;101386.53;5073492;28;20033;-64
2023/09/10 00:05:12;;;;;;;9.68;5.72;;;;;;;28.16;48.69;101389.53;5073346;28;20039;-64
2023/09/10 00:07:37;;;;;;;6.70;5.90;;;;;;;28.13;48.01;101396.34;5074585;28;20085;-64
2023/09/10 00:10:03;;;;;;;7.10;6.15;;;;;;;28.11;48.94;101392.13;5073179;28;20106;-64
2023/09/10 00:12:28;;;;;;;9.32;6.35;;;;;;;28.11;47.92;101395.72;5055297;28;20071;-64
2023/09/10 00:14:54;;;;;;;12.15;6.68;;;;;;;28.08;48.29;101396.19;5056541;28;20083;-64
2023/09/10 00:17:20;;;;;;;10.80;5.00;;;;;;;28.06;48.58;101387.28;5074556;28;20029;-64
2023/09/10 00:19:46;;;;;;;10.88;7.72;;;;;;;28.06;49.11;101395.56;5056793;28;20047;-64
2023/09/10 00:22:11;;;;;;;9.48;6.70;;;;;;;28.05;48.84;101396.66;5074282;28;20032;-64
2023/09/10 00:24:37;;;;;;;8.88;6.88;;;;;;;28.04;49.31;101397.72;5073426;28;20047;-64
2023/09/10 00:27:02;;;;;;;8.60;7.18;;;;;;;28.02;48.61;101394.31;5074350;28;20500;-64
2023/09/10 00:29:28;;;;;;;9.10;6.28;;;;;;;27.98;48.86;101401.34;5074261;28;20032;-64
2023/09/10 00:31:53;;;;;;;6.40;5.47;;;;;;;27.96;48.24;101392.47;5039573;28;20094;-64
2023/09/10 00:34:19;;;;;;;9.55;6.70;;;;;;;27.92;49.35;101394.00;5074133;28;20050;-64
2023/09/10 00:36:44;;;;;;;14.57;7.03;;;;;;;27.89;48.57;101388.94;5074129;28;20040;-63
2023/09/10 00:39:10;;;;;;;8.98;6.47;;;;;;;27.85;48.30;101393.25;5074465;28;20028;-65
2023/09/10 00:41:35;;;;;;;13.50;6.68;;;;;;;27.81;49.08;101386.50;5074088;28;20028;-65
2023/09/10 00:44:00;;;;;;;9.70;6.30;;;;;;;27.82;48.63;101392.84;5055873;28;20131;-65
2023/09/10 00:46:26;;;;;;;9.88;6.70;;;;;;;27.79;49.53;101382.28;5072607;28;20040;-65
2023/09/10 00:48:52;;;;;;;11.93;6.25;;;;;;;27.76;48.71;101380.84;5071868;28;20036;-66
2023/09/10 00:51:18;;;;;;;11.07;6.38;;;;;;;27.75;48.66;101387.41;5057139;28;20090;-65
2023/09/10 00:53:43;;;;;;;9.52;5.97;;;;;;;27.73;48.61;101382.16;5072815;28;20381;-65
2023/09/10 00:56:10;;;;;;;13.65;6.45;;;;;;;27.72;48.48;101379.63;5072630;28;20086;-65
2023/09/10 00:58:36;;;;;;;8.98;6.60;;;;;;;27.69;48.67;101385.59;5072697;28;20029;-65
2023/09/10 01:01:01;;;;;;;8.48;6.40;;;;;;;27.67;49.44;101384.97;5072202;28;20102;-65
2023/09/10 01:03:30;;;;;;;7.78;5.85;;;;;;;27.65;49.25;101376.09;5073521;28;20448;-65
2023/09/10 01:05:55;;;;;;;12.48;7.20;;;;;;;27.63;48.88;101392.00;5072223;28;20120;-65
2023/09/10 01:08:21;;;;;;;10.05;6.95;;;;;;;27.60;49.23;101389.69;5072112;28;20024;-65
2023/09/10 01:10:55;;;;;;;9.95;6.40;;;;;;;27.57;48.68;101384.66;5055509;28;20033;-65
2023/09/10 01:13:56;;;;;;;8.13;5.93;;;;;;;27.57;48.61;101390.16;5073367;28;20036;-65
2023/09/10 01:16:37;;;;;;;8.90;4.38;;;;;;;27.51;48.72;101389.16;5028427;28;20064;-65
2023/09/10 01:19:50;;;;;;;8.95;5.57;;;;;;;27.49;49.40;101393.19;5072197;28;20460;-64
2023/09/10 01:22:24;;;;;;;9.10;6.25;;;;;;;27.46;48.53;101399.16;5065448;28;20041;-64
2023/09/10 01:24:51;;;;;;;10.02;7.78;;;;;;;27.44;49.53;101395.78;5073003;28;20182;-63
2023/09/10 01:27:17;;;;;;;8.85;6.60;;;;;;;27.43;49.03;101394.09;5055664;28;20025;-63
2023/09/10 01:29:43;;;;;;;8.27;6.05;;;;;;;27.42;49.88;101392.41;5073640;28;20035;-64
2023/09/10 01:32:13;;;;;;;8.68;6.45;;;;;;;27.41;49.15;101393.50;5072251;28;20028;-64
2023/09/10 01:34:42;;;;;;;8.38;6.75;;;;;;;27.39;49.07;101395.56;5072033;28;20036;-63
2023/09/10 01:37:15;;;;;;;6.13;5.40;;;;;;;27.36;49.19;101401.56;5071959;28;20108;-64
2023/09/10 01:39:41;;;;;;;12.02;6.72;;;;;;;27.36;49.00;101396.06;5070617;28;20086;-64
2023/09/10 01:42:07;;;;;;;11.32;6.35;;;;;;;27.35;49.32;101397.09;5072534;28;20062;-64
2023/09/10 01:44:35;;;;;;;14.35;7.53;;;;;;;27.35;49.57;101399.88;5071807;28;20024;-64
2023/09/10 01:47:00;;;;;;;12.00;6.68;;;;;;;27.31;49.30;101398.63;5071861;28;20032;-64
2023/09/10 01:49:26;;;;;;;11.32;6.95;;;;;;;27.32;49.50;101408.56;5071681;28;20504;-64
2023/09/10 01:51:51;;;;;;;8.52;5.25;;;;;;;27.30;49.94;101413.47;5071207;28;20094;-64
2023/09/10 01:54:17;;;;;;;7.35;5.22;;;;;;;27.25;49.57;101410.53;5054901;28;20052;-64
2023/09/10 01:56:42;;;;;;;10.88;5.10;;;;;;;27.26;49.54;101414.97;5071104;28;20060;-64
2023/09/10 01:59:07;;;;;;;12.15;6.70;;;;;;;27.24;49.20;101412.44;5072678;28;20036;-64
2023/09/10 02:01:34;;;;;;;9.30;6.70;;;;;;;27.21;49.71;101412.03;5072522;28;20032;-66
2023/09/10 02:03:59;;;;;;;9.52;6.15;;;;;;;27.21;49.47;101417.56;5072675;28;20449;-64
2023/09/10 02:06:25;;;;;;;12.25;7.50;;;;;;;27.18;49.93;101416.94;5072256;28;20113;-64
2023/09/10 02:08:50;;;;;;;10.35;5.90;;;;;;;27.19;49.73;101421.34;5054420;28;20573;-64
2023/09/10 02:11:15;;;;;;;10.48;6.63;;;;;;;27.16;49.08;101413.53;5072033;28;20037;-64
2023/09/10 02:13:41;;;;;;;10.43;7.25;;;;;;;27.14;49.16;101418.44;5071259;28;20442;-64
2023/09/10 02:16:07;;;;;;;6.72;5.10;;;;;;;27.12;49.83;101420.56;5072560;28;20112;-63
2023/09/10 02:18:33;;;;;;;10.82;6.25;;;;;;;27.10;49.27;101416.38;5072659;28;20102;-64
2023/09/10 02:20:58;;;;;;;6.25;5.10;;;;;;;27.05;49.82;101413.44;5071253;28;20070;-64
2023/09/10 02:23:23;;;;;;;10.73;5.78;;;;;;;27.05;49.36;101416.19;5072411;28;20051;-64
2023/09/10 02:25:49;;;;;;;11.10;6.53;;;;;;;27.05;49.57;101424.44;5072802;28;20047;-64
2023/09/10 02:28:14;;;;;;;6.47;5.82;;;;;;;27.02;49.91;101413.91;5072560;28;20488;-64
2023/09/10 02:30:40;;;;;;;9.23;6.88;;;;;;;27.00;49.47;101416.84;5072380;28;20040;-64
2023/09/10 02:33:06;;;;;;;10.45;7.10;;;;;;;26.99;50.05;101419.84;5074217;28;20102;-63
2023/09/10 02:35:32;;;;;;;11.98;6.80;;;;;;;26.98;49.36;101423.63;5076337;28;20557;-64
2023/09/10 02:37:57;;;;;;;13.82;6.28;;;;;;;26.96;49.55;101432.13;5076923;28;20036;-64
2023/09/10 02:40:23;;;;;;;9.57;6.47;;;;;;;26.93;49.69;101426.22;5075179;28;20058;-64
2023/09/10 02:42:48;;;;;;;9.43;6.13;;;;;;;26.93;50.38;101429.81;5074774;28;20036;-64
2023/09/10 02:45:13;;;;;;;11.00;6.47;;;;;;;26.90;49.45;101422.00;5058255;28;20496;-64
2023/09/10 02:47:39;;;;;;;6.60;5.57;;;;;;;26.88;49.93;101421.41;5058460;28;20029;-64
2023/09/10 02:50:05;;;;;;;15.63;8.65;;;;;;;26.86;49.65;101422.66;5076192;28;20110;-64
2023/09/10 02:52:30;;;;;;;9.85;7.13;;;;;;;26.85;49.98;101424.59;5076163;28;20431;-64
2023/09/10 02:54:57;;;;;;;9.02;6.60;;;;;;;26.82;49.91;101429.69;5074851;28;20038;-64
2023/09/10 02:57:22;;;;;;;10.77;6.35;;;;;;;26.81;49.81;101423.31;5074599;28;20033;-64
2023/09/10 02:59:47;;;;;;;8.82;5.88;;;;;;;26.80;49.85;101429.88;5075885;28;20039;-64
2023/09/10 03:02:13;;;;;;;10.25;7.10;;;;;;;26.79;50.13;101428.22;5075753;28;20079;-64
2023/09/10 03:04:38;;;;;;;9.07;5.78;;;;;;;26.78;49.58;101436.63;5076033;28;20036;-64
2023/09/10 03:07:04;;;;;;;11.82;7.20;;;;;;;26.75;49.82;101440.66;5075808;28;20044;-63
2023/09/10 03:09:29;;;;;;;17.27;7.82;;;;;;;26.77;49.66;101437.72;5056387;28;20466;-62
2023/09/10 03:12:20;;;;;;;11.07;6.68;;;;;;;26.74;49.73;101441.75;5057472;28;20079;-62
2023/09/10 03:14:46;;;;;;;8.77;5.30;;;;;;;26.71;50.09;101433.09;5075573;28;20041;-62
2023/09/10 03:17:12;;;;;;;8.77;5.97;;;;;;;26.68;50.17;101437.13;5075532;28;20046;-62
2023/09/10 03:19:37;;;;;;;8.25;5.63;;;;;;;26.64;49.59;101427.63;5075562;28;20123;-62
2023/09/10 03:22:03;;;;;;;5.55;4.90;;;;;;;26.63;50.09;101432.28;5075463;28;20108;-63
2023/09/10 03:24:29;;;;;;;10.40;6.45;;;;;;;26.61;50.00;101428.06;5073980;28;20068;-63
2023/09/10 03:26:54;;;;;;;12.02;6.75;;;;;;;26.59;50.32;101435.69;5074192;28;20522;-65
2023/09/10 03:29:20;;;;;;;9.02;7.10;;;;;;;26.57;50.07;101426.84;5076050;28;20510;-63
2023/09/10 03:31:45;;;;;;;10.90;7.00;;;;;;;26.56;50.04;101425.97;5057952;28;20040;-63
2023/09/10 03:34:11;;;;;;;6.82;5.53;;;;;;;26.55;49.83;101421.53;5074066;28;20070;-63
2023/09/10 03:36:36;;;;;;;7.28;6.32;;;;;;;26.52;50.20;101418.41;5073925;28;20124;-63
2023/09/10 03:39:03;;;;;;;11.50;6.80;;;;;;;26.51;49.80;101427.69;5075360;28;20036;-63
2023/09/10 03:41:28;;;;;;;9.02;5.95;;;;;;;26.46;50.08;101416.53;5074141;28;20108;-62
2023/09/10 03:43:55;;;;;;;10.02;6.13;;;;;;;26.46;50.07;101419.28;5074545;28;20048;-63
2023/09/10 03:46:20;;;;;;;12.73;7.40;;;;;;;26.42;50.35;101407.03;5073938;28;20037;-63
2023/09/10 03:48:45;;;;;;;9.95;7.65;;;;;;;26.41;50.17;101416.34;5072728;28;20102;-63
2023/09/10 03:51:11;;;;;;;9.50;7.00;;;;;;;26.39;50.57;101418.44;5074858;28;20082;-63
2023/09/10 03:53:36;;;;;;;13.10;6.85;;;;;;;26.40;50.00;101414.66;5073530;28;20033;-63
2023/09/10 03:56:01;;;;;;;8.88;7.40;;;;;;;26.39;50.15;101423.94;5075108;28;20044;-62
2023/09/10 03:58:27;;;;;;;12.65;6.82;;;;;;;26.37;50.54;101415.09;5075132;28;20033;-63
2023/09/10 04:00:52;;;;;;;11.65;7.05;;;;;;;26.37;50.46;101426.91;5073460;28;20029;-63
2023/09/10 04:03:18;;;;;;;9.65;6.75;;;;;;;26.35;50.51;101417.22;5074751;28;20046;-62
2023/09/10 04:05:43;;;;;;;7.57;4.93;;;;;;;26.33;50.52;101422.06;5073466;28;20514;-62
2023/09/10 04:08:08;;;;;;;7.93;6.13;;;;;;;26.30;50.25;101417.03;5074207;28;20028;-62
2023/09/10 04:10:34;;;;;;;17.17;6.53;;;;;;;26.28;50.55;101413.63;5073516;28;20040;-64
2023/09/10 04:12:59;;;;;;;13.23;5.82;;;;;;;26.27;50.59;101417.47;5056597;28;20043;-64
2023/09/10 04:15:25;;;;;;;9.57;7.00;;;;;;;26.26;50.67;101413.03;5074588;28;20165;-62
2023/09/10 04:17:50;;;;;;;10.52;7.78;;;;;;;26.24;50.62;101415.16;5074455;28;20040;-63
2023/09/10 04:20:15;;;;;;;11.82;7.88;;;;;;;26.22;50.51;101406.25;5074598;28;20036;-62
2023/09/10 04:22:41;;;;;;;15.90;8.75;;;;;;;26.22;50.58;101409.00;5074406;28;20037;-63
2023/09/10 04:25:06;;;;;;;19.10;8.48;;;;;;;26.19;50.29;101401.19;5073810;28;20057;-63
2023/09/10 04:27:32;;;;;;;10.35;7.50;;;;;;;26.22;50.30;101411.75;5072910;28;20070;-63
2023/09/10 04:29:58;;;;;;;11.82;7.97;;;;;;;26.19;50.11;101406.69;5074239;28;20518;-63
2023/09/10 04:32:23;;;;;;;12.07;7.60;;;;;;;26.19;50.46;101412.19;5072900;28;20032;-62
2023/09/10 04:34:48;;;;;;;13.70;7.75;;;;;;;26.20;50.74;101419.38;5072940;28;20515;-63
2023/09/10 04:37:14;;;;;;;12.35;7.60;;;;;;;26.19;50.33;101417.69;5073913;28;20098;-62
2023/09/10 04:39:39;;;;;;;13.15;7.35;;;;;;;26.15;50.36;101410.94;5073629;28;20036;-64
2023/09/10 04:42:05;;;;;;;12.90;6.88;;;;;;;26.15;50.23;101416.44;5072455;28;20099;-63
2023/09/10 04:44:30;;;;;;;12.55;7.57;;;;;;;26.14;50.06;101420.25;5039395;28;20028;-63
2023/09/10 04:46:56;;;;;;;11.68;7.43;;;;;;;26.11;50.21;101420.63;5074001;28;20414;-62
2023/09/10 04:49:23;;;;;;;10.68;7.35;;;;;;;26.08;50.21;101426.56;5072492;28;20111;-63
2023/09/10 04:51:48;;;;;;;12.60;7.47;;;;;;;26.07;50.72;101423.00;5072315;28;20112;-63
2023/09/10 04:54:14;;;;;;;10.25;7.70;;;;;;;26.07;50.29;101424.88;5072219;28;20099;-63
2023/09/10 04:56:39;;;;;;;10.73;6.35;;;;;;;26.04;50.65;101424.28;5072809;28;20067;-64
2023/09/10 04:59:04;;;;;;;7.20;6.10;;;;;;;26.02;50.59;101425.53;5073546;28;20127;-62
2023/09/10 05:01:30;;;;;;;7.68;5.93;;;;;;;26.01;50.20;101427.44;5072115;28;20044;-63
2023/09/10 05:03:55;;;;;;;8.45;5.50;;;;;;;25.99;50.54;101440.53;5072196;28;20476;-62
2023/09/10 05:06:20;;;;;;;5.88;5.25;;;;;;;25.99;50.47;101428.72;5073463;28;20020;-62
2023/09/10 05:08:46;;;;;;;5.32;4.72;;;;;;;25.97;50.66;101434.41;5073575;28;20099;-63
2023/09/10 05:11:14;;;;;;;9.02;6.22;;;;;;;25.96;50.41;101429.97;5073117;28;20483;-63
2023/09/10 05:13:39;;;;;;;11.82;6.57;;;;;;;25.96;50.48;101435.47;5072024;28;20028;-62
2023/09/10 05:16:05;;;;;;;7.80;5.25;;;;;;;25.96;50.44;101432.72;5072346;28;20025;-62
2023/09/10 05:18:31;;;;;;;9.38;5.35;;;;;;;25.97;50.77;101434.41;5072828;28;20023;-63
2023/09/10 05:20:57;;;;;;;9.43;7.03;;;;;;;25.98;50.45;101436.13;5073371;28;20016;-63
2023/09/10 05:23:23;;;;;;;11.90;7.07;;;;;;;26.00;50.87;101449.63;5073237;28;20049;-64
2023/09/10 05:25:50;;;;;;;11.50;8.50;;;;;;;26.01;50.26;101438.44;5073086;28;20503;-65
2023/09/10 05:28:16;;;;;;;12.90;7.18;;;;;;;26.03;50.77;101438.19;5073043;28;20024;-63
2023/09/10 05:30:41;;;;;;;13.88;9.02;;;;;;;26.08;50.81;101443.03;5072032;28;20031;-63
2023/09/10 05:33:06;;;;;;;15.18;9.07;;;;;;;26.11;50.52;101440.72;5071804;28;20036;-64
2023/09/10 05:35:32;;;;;;;9.82;7.38;;;;;;;26.15;50.69;101443.91;5073201;28;20028;-63
2023/09/10 05:37:57;;;;;;;13.77;9.00;;;;;;;26.21;50.55;101448.53;5071657;28;20082;-64
2023/09/10 05:40:23;;;;;;;10.57;8.48;;;;;;;26.25;50.88;101444.28;5071709;28;20035;-63
2023/09/10 05:42:48;;;;;;;12.48;8.27;;;;;;;26.27;50.56;101442.19;5072526;28;20028;-65
2023/09/10 05:45:14;;;;;;;12.38;8.70;;;;;;;26.35;50.57;101447.44;5054858;28;20032;-65
2023/09/10 05:47:40;;;;;;;11.70;7.53;;;;;;;26.40;50.32;101445.72;5071605;28;20064;-64
2023/09/10 05:50:06;;;;;;;14.10;8.40;;;;;;;26.46;50.36;101446.75;5072726;28;20059;-64
2023/09/10 05:52:32;;;;;;;13.68;9.00;;;;;;;26.54;50.38;101455.59;5071562;28;20046;-64
2023/09/10 05:54:57;;;;;;;11.25;8.18;;;;;;;26.62;50.22;101449.00;5073213;28;20086;-64
2023/09/10 05:57:23;;;;;;;11.65;8.13;;;;;;;26.75;50.25;101451.66;5073034;28;20507;-64
2023/09/10 05:59:49;;;;;;;10.88;7.13;;;;;;;26.85;50.43;101445.75;5070876;28;20484;-64
2023/09/10 06:02:15;;;;;;;11.05;7.90;;;;;;;26.99;50.19;101450.09;5073091;28;20029;-63
2023/09/10 06:04:40;;;;;;;12.02;8.70;;;;;;;27.11;50.21;101445.53;5073138;28;20425;-64
2023/09/10 06:07:06;;;;;;;9.40;8.05;;;;;;;27.26;50.28;101453.47;5072894;28;20055;-64
2023/09/10 06:09:31;;;;;;;11.57;8.10;;;;;;;27.38;49.79;101457.22;5072695;28;20036;-64
2023/09/10 06:11:57;;;;;;;11.27;9.32;;;;;;;27.50;49.90;101461.78;5071952;28;20586;-64
2023/09/10 06:14:23;;;;;;;13.93;7.32;;;;;;;27.63;49.64;101449.81;5054969;28;20498;-64
2023/09/10 06:16:48;;;;;;;14.30;8.43;;;;;;;27.77;50.27;101467.91;5073451;28;20120;-64
2023/09/10 06:19:14;;;;;;;13.30;9.25;;;;;;;27.91;49.49;101463.97;5071859;28;20035;-64
2023/09/10 06:21:40;;;;;;;13.63;9.20;;;;;;;28.04;50.14;101466.59;5071665;28;20116;-65
2023/09/10 06:24:05;;;;;;;13.75;8.70;;;;;;;28.18;49.36;101461.78;5072214;28;20065;-64
2023/09/10 06:26:32;;;;;;;15.07;8.73;;;;;;;28.31;49.08;101470.72;5054545;28;20037;-65
2023/09/10 06:28:57;;;;;;;13.60;8.52;;;;;;;28.45;49.44;101465.06;5071162;28;20040;-64
2023/09/10 06:31:23;;;;;;;16.23;9.75;;;;;;;28.60;49.13;101460.84;5072347;28;20028;-64
2023/09/10 06:33:48;;;;;;;18.40;10.20;;;;;;;28.75;49.67;101471.50;5072789;28;20111;-65
2023/09/10 06:36:13;;;;;;;14.30;9.48;;;;;;;28.88;49.20;101460.28;5072478;28;20051;-64
2023/09/10 06:38:40;;;;;;;21.17;11.05;;;;;;;29.00;49.22;101468.59;5071473;28;20032;-64
2023/09/10 06:41:05;;;;;;;18.25;10.50;;;;;;;29.16;49.25;101477.03;5071378;28;20036;-64
2023/09/10 06:43:31;;;;;;;17.80;10.60;;;;;;;29.33;49.36;101478.09;5071590;28;20059;-64
2023/09/10 06:45:57;;;;;;;16.88;11.07;;;;;;;29.51;48.75;101481.84;5070811;28;20044;-65
2023/09/10 06:48:22;;;;;;;13.48;10.13;;;;;;;29.68;48.69;101489.16;5071942;28;20066;-64
2023/09/10 06:50:47;;;;;;;20.25;10.30;;;;;;;29.86;48.54;101488.25;5070644;28;20025;-65
2023/09/10 06:53:13;;;;;;;12.60;8.63;;;;;;;30.01;48.42;101485.88;5072197;28;20025;-64
2023/09/10 06:55:38;;;;;;;12.25;8.25;;;;;;;30.16;48.04;101486.19;5072147;28;20033;-64
2023/09/10 06:58:03;;;;;;;14.45;9.38;;;;;;;30.30;48.32;101484.84;5071954;28;20078;-65
2023/09/10 07:00:29;;;;;;;15.48;8.77;;;;;;;30.47;47.70;101491.34;5070921;28;20060;-64
2023/09/10 07:02:56;;;;;;;13.10;8.82;;;;;;;30.65;47.40;101492.25;5072224;28;20032;-64
2023/09/10 07:05:21;;;;;;;11.77;8.65;;;;;;;30.81;47.20;101488.72;5054179;28;20029;-64
2023/09/10 07:07:53;;;;;;;13.35;8.02;;;;;;;30.95;47.16;101479.91;5070549;28;20028;-64
2023/09/10 07:10:19;;;;;;;12.50;8.82;;;;;;;31.11;47.41;101483.78;5071995;28;20491;-64
2023/09/10 07:12:44;;;;;;;14.95;8.65;;;;;;;31.30;46.74;101488.00;5070558;28;20045;-64
2023/09/10 07:15:09;;;;;;;14.75;8.25;;;;;;;31.48;46.70;101485.06;5071717;28;20028;-64
2023/09/10 07:17:36;;;;;;;13.38;7.68;;;;;;;31.67;46.47;101480.09;5070766;28;20043;-62
2023/09/10 07:20:01;;;;;;;11.98;8.77;;;;;;;31.88;46.19;101484.03;5074866;28;20028;-65
2023/09/10 07:22:27;;;;;;;14.10;7.68;;;;;;;32.07;46.38;101482.69;5075295;28;20518;-64
2023/09/10 07:24:52;;;;;;;13.73;7.88;;;;;;;32.29;46.42;101491.88;5075021;28;20119;-64
2023/09/10 07:27:17;;;;;;;13.25;7.60;;;;;;;32.49;45.73;101488.53;5075570;28;20041;-64
2023/09/10 07:29:43;;;;;;;12.43;7.25;;;;;;;32.69;44.99;101481.31;5074195;28;20496;-64
2023/09/10 07:32:08;;;;;;;13.70;7.25;;;;;;;32.90;45.10;101484.31;5074000;28;20032;-65
2023/09/10 07:34:35;;;;;;;9.40;6.30;;;;;;;33.10;45.32;101487.34;5075310;28;20075;-64
2023/09/10 07:37:00;;;;;;;12.23;6.65;;;;;;;33.31;45.10;101484.50;5074909;28;20039;-64
2023/09/10 07:39:29;;;;;;;10.27;6.32;;;;;;;33.54;44.86;101485.25;5075304;28;20111;-64
2023/09/10 07:41:54;;;;;;;8.15;6.20;;;;;;;33.77;43.76;101482.97;5073782;28;20080;-63
2023/09/10 07:44:20;;;;;;;12.23;6.47;;;;;;;33.98;44.53;101484.78;5073716;28;20033;-64
2023/09/10 07:46:45;;;;;;;11.18;5.55;;;;;;;34.22;44.23;101479.69;5072097;28;20123;-64
2023/09/10 07:49:10;;;;;;;10.73;6.47;;;;;;;34.46;43.91;101480.06;5073728;28;20554;-64
2023/09/10 07:51:36;;;;;;;9.55;6.45;;;;;;;34.68;44.16;101480.75;5073495;28;20040;-64
2023/09/10 07:54:01;;;;;;;13.13;5.65;;;;;;;34.92;43.07;101490.31;5075008;28;20059;-64
2023/09/10 07:56:27;;;;;;;11.05;5.93;;;;;;;35.15;43.06;101493.72;5056977;28;20112;-64
2023/09/10 07:58:52;;;;;;;7.63;5.55;;;;;;;35.33;42.90;101496.81;5056857;28;20036;-65
2023/09/10 08:01:18;;;;;;;9.98;5.38;;;;;;;35.52;42.87;101495.13;5074674;28;20115;-65
2023/09/10 08:03:43;;;;;;;6.50;5.35;;;;;;;35.72;42.21;101485.97;5056679;28;20033;-65
2023/09/10 08:06:09;;;;;;;11.10;4.93;;;;;;;35.90;41.67;101490.97;5073321;28;20086;-65
2023/09/10 08:08:34;;;;;;;11.77;4.55;;;;;;;36.07;41.07;101496.28;5074526;28;20032;-64
2023/09/10 08:10:59;;;;;;;8.57;4.30;;;;;;;36.24;41.42;101501.53;5073287;28;20037;-65
2023/09/10 08:13:25;;;;;;;10.30;4.80;;;;;;;36.43;41.25;101505.38;5074560;28;20508;-64
2023/09/10 08:15:50;;;;;;;10.38;5.25;;;;;;;36.60;41.15;101500.31;5073303;28;20098;-64
2023/09/10 08:18:16;;;;;;;9.02;4.85;;;;;;;36.79;40.74;101501.34;5056349;28;20112;-65
2023/09/10 08:20:44;;;;;;;12.35;6.13;;;;;;;36.98;40.63;101505.16;5074340;28;20029;-65
2023/09/10 08:23:10;;;;;;;10.93;5.97;;;;;;;37.14;40.16;101506.72;5074227;28;20044;-64
2023/09/10 08:25:36;;;;;;;12.07;4.95;;;;;;;37.31;39.67;101501.59;5074307;28;20519;-66
2023/09/10 08:28:02;;;;;;;7.80;5.20;;;;;;;37.48;39.72;101490.03;5056146;28;20043;-64
2023/09/10 08:30:28;;;;;;;9.73;4.90;;;;;;;37.65;40.09;101489.59;5073042;28;20499;-64
2023/09/10 08:32:54;;;;;;;12.52;5.65;;;;;;;37.83;39.26;101486.09;5073044;28;20036;-64
2023/09/10 08:35:20;;;;;;;10.45;6.07;;;;;;;37.99;39.01;101484.81;5074455;28;20040;-66
2023/09/10 08:37:46;;;;;;;15.30;5.80;;;;;;;38.15;38.44;101489.13;5074131;28;20093;-64
2023/09/10 08:40:12;;;;;;;6.47;4.10;;;;;;;38.31;38.18;101482.19;5069014;28;20501;-65
2023/09/10 08:42:58;;;;;;;13.30;4.70;;;;;;;38.49;37.82;101486.22;5073170;28;20085;-65
2023/09/10 08:45:23;;;;;;;11.75;3.88;;;;;;;38.66;37.82;101482.91;5072607;28;20036;-65
2023/09/10 08:47:54;;;;;;;10.07;4.32;;;;;;;38.83;37.50;101478.50;5071783;28;20054;-64
2023/09/10 08:50:21;;;;;;;18.38;4.95;;;;;;;38.98;37.26;101481.06;5072270;28;20033;-68
2023/09/10 08:52:48;;;;;;;10.35;4.43;;;;;;;39.10;37.21;101474.19;5071830;28;20048;-64
2023/09/10 08:55:14;;;;;;;8.18;4.60;;;;;;;39.25;36.61;101477.63;5073364;28;20028;-67
2023/09/10 08:57:41;;;;;;;8.45;4.15;;;;;;;39.40;36.69;101482.13;5055266;28;20111;-67
2023/09/10 09:00:10;;;;;;;8.45;4.55;;;;;;;39.54;36.79;101481.03;5052635;28;20032;-65
2023/09/10 09:02:37;;;;;;;9.30;4.60;;;;;;;39.70;36.13;101481.63;5055828;28;20446;-67
2023/09/10 09:05:03;;;;;;;11.35;3.72;;;;;;;39.86;35.60;101462.53;5072337;28;20032;-66
2023/09/10 09:07:31;;;;;;;9.20;4.10;;;;;;;39.98;34.89;101472.13;5039110;28;20100;-67
2023/09/10 09:10:00;;;;;;;7.88;3.85;;;;;;;40.12;35.04;101469.34;5071908;28;20029;-68
2023/09/10 09:12:26;;;;;;;7.95;4.57;;;;;;;40.28;34.69;101475.50;5072012;28;20052;-68
2023/09/10 09:14:51;;;;;;;7.10;3.90;;;;;;;40.36;34.56;101467.19;5071643;28;20089;-68
2023/09/10 09:17:17;;;;;;;10.70;4.10;;;;;;;40.52;34.44;101473.31;5056626;28;20059;-68
2023/09/10 09:19:44;;;;;;;8.95;3.72;;;;;;;40.69;34.08;101474.34;5071864;28;20514;-69
2023/09/10 09:22:10;;;;;;;9.55;3.67;;;;;;;40.83;33.69;101467.84;5072194;28;20136;-68
2023/09/10 09:24:36;;;;;;;8.48;5.22;;;;;;;40.90;33.87;101471.09;5055144;28;20048;-68
2023/09/10 09:27:02;;;;;;;11.80;4.05;;;;;;;40.97;33.42;101460.25;5071801;28;20408;-68
2023/09/10 09:29:29;;;;;;;8.88;4.35;;;;;;;41.08;33.12;101461.66;5073206;28;20036;-68
2023/09/10 09:31:54;;;;;;;7.43;4.38;;;;;;;41.17;33.15;101463.41;5071744;28;20035;-68
2023/09/10 09:34:20;;;;;;;10.75;4.68;;;;;;;41.35;32.53;101450.31;5073040;28;20036;-69
2023/09/10 09:36:50;;;;;;;6.50;4.43;;;;;;;41.66;32.05;101450.34;5054964;28;20063;-69
2023/09/10 09:39:17;;;;;;;8.38;4.45;;;;;;;42.12;32.12;101459.25;5071932;28;20033;-67
2023/09/10 09:41:46;;;;;;;12.70;4.68;;;;;;;42.82;31.69;101450.69;5071673;28;20112;-69
2023/09/10 09:44:11;;;;;;;12.02;4.53;;;;;;;44.41;29.70;101443.72;5073071;28;20123;-68
2023/09/10 09:46:37;;;;;;;8.05;4.18;;;;;;;45.55;27.83;101448.97;5073278;28;20048;-68
2023/09/10 09:49:02;;;;;;;12.93;4.38;;;;;;;45.10;28.68;101441.25;5071458;28;20024;-69
2023/09/10 09:51:28;;;;;;;9.55;5.03;;;;;;;44.85;29.16;101442.25;5073090;28;20029;-68
2023/09/10 09:53:54;;;;;;;8.70;4.25;;;;;;;44.67;28.82;101431.44;5071892;28;20097;-68
2023/09/10 09:56:21;;;;;;;11.02;4.47;;;;;;;44.62;28.98;101435.28;5055101;28;20115;-68
2023/09/10 09:58:46;;;;;;;8.52;4.70;;;;;;;44.62;29.04;101446.59;5072768;28;20023;-68
2023/09/10 10:01:12;;;;;;;12.88;3.95;;;;;;;44.64;28.70;101447.09;5054602;28;20017;-69
2023/09/10 10:03:37;;;;;;;9.68;4.15;;;;;;;44.72;28.95;101446.19;5071948;28;20020;-68
2023/09/10 10:06:03;;;;;;;9.55;3.25;;;;;;;44.84;28.75;101437.78;5071306;28;20091;-67
2023/09/10 10:08:29;;;;;;;13.00;4.03;;;;;;;45.01;29.05;101440.47;5072213;28;20024;-69
2023/09/10 10:10:55;;;;;;;9.20;4.07;;;;;;;45.24;28.56;101434.44;5073566;28;20020;-68
2023/09/10 10:13:23;;;;;;;7.40;4.53;;;;;;;45.46;27.85;101440.56;5076739;28;20021;-68
2023/09/10 10:15:51;;;;;;;12.30;5.00;;;;;;;45.65;27.97;101432.38;5078720;28;20054;-69
2023/09/10 10:18:18;;;;;;;8.00;3.80;;;;;;;45.91;27.72;101432.06;5079574;28;20076;-68
2023/09/10 10:20:49;;;;;;;12.40;4.00;;;;;;;46.05;28.03;101426.91;5078186;28;20012;-69
2023/09/10 10:23:15;;;;;;;11.40;3.90;;;;;;;46.23;27.87;101428.34;5078324;28;20097;-68
2023/09/10 10:25:42;;;;;;;13.10;4.38;;;;;;;46.40;27.44;101426.47;5075549;28;20503;-68
2023/09/10 10:28:09;;;;;;;10.75;3.30;;;;;;;46.55;27.21;101426.53;5071762;28;20029;-68
2023/09/10 10:30:49;;;;;;;16.08;4.00;;;;;;;46.71;26.72;101424.59;5071379;28;20025;-68
2023/09/10 10:33:17;;;;;;;7.22;3.08;;;;;;;46.85;26.66;101421.41;5071580;28;20531;-67
2023/09/10 10:35:50;;;;;;;10.07;3.78;;;;;;;46.99;26.45;101421.03;5073230;28;20112;-68
2023/09/10 10:38:19;;;;;;;8.40;4.18;;;;;;;47.04;26.56;101424.44;5055318;28;20511;-68
2023/09/10 10:40:45;;;;;;;10.38;4.50;;;;;;;47.13;26.09;101422.25;5072325;28;20047;-68
2023/09/10 10:43:20;;;;;;;11.82;4.13;;;;;;;47.16;25.98;101413.03;5054577;28;20028;-68
2023/09/10 10:45:47;;;;;;;13.13;4.18;;;;;;;47.24;25.88;101417.72;5071379;28;20032;-69
2023/09/10 10:48:24;;;;;;;10.27;4.05;;;;;;;47.32;25.99;101419.59;5071051;28;20082;-68
2023/09/10 10:50:51;;;;;;;11.35;3.90;;;;;;;47.35;25.74;101406.69;5054207;28;20377;-69
2023/09/10 10:53:22;;;;;;;11.43;4.18;;;;;;;47.43;25.91;101408.53;5071286;28;20029;-69
2023/09/10 10:55:50;;;;;;;10.93;4.28;;;;;;;47.54;26.04;101411.66;5074913;28;20116;-68
2023/09/10 10:58:18;;;;;;;10.25;4.30;;;;;;;47.60;25.78;101407.38;5075085;28;20039;-69
2023/09/10 11:00:47;;;;;;;10.68;4.47;;;;;;;47.65;25.47;101404.25;5058229;28;20021;-68
2023/09/10 11:03:14;;;;;;;6.80;4.07;;;;;;;47.72;25.95;101402.41;5076357;28;20036;-69
2023/09/10 11:05:52;;;;;;;13.55;4.30;;;;;;;47.82;25.17;101404.72;5074592;28;20036;-68
2023/09/10 11:08:38;;;;;;;7.35;3.65;;;;;;;47.85;25.08;101384.13;5075898;28;20028;-68
2023/09/10 11:11:06;;;;;;;7.28;3.45;;;;;;;47.94;24.82;101395.28;5074483;28;20173;-67
2023/09/10 11:13:32;;;;;;;7.45;3.70;;;;;;;48.02;25.19;101397.13;5074683;28;20115;-68
2023/09/10 11:16:03;;;;;;;7.20;4.65;;;;;;;48.08;24.41;101392.78;5074741;28;20036;-68